createdAt,value
2024-02-07T00:00:57.672Z,10.68
2024-02-07T00:01:59.514Z,9.00
2024-02-07T00:03:01.185Z,9.00
2024-02-07T00:04:04.785Z,9.80
2024-02-07T00:05:06.835Z,10.32
2024-02-07T00:06:08.518Z,9.27
2024-02-07T00:07:10.201Z,9.60
2024-02-07T00:08:11.925Z,10.70
2024-02-07T00:09:13.496Z,10.82
2024-02-07T00:10:15.272Z,10.40
2024-02-07T00:11:16.867Z,10.50
2024-02-07T00:12:19.137Z,10.55
2024-02-07T00:13:20.758Z,11.30
2024-02-07T00:14:22.319Z,9.85
2024-02-07T00:15:23.898Z,11.60
2024-02-07T00:16:25.629Z,11.10
2024-02-07T00:17:27.240Z,11.55
2024-02-07T00:18:28.849Z,10.38
2024-02-07T00:19:30.612Z,9.77
2024-02-07T00:20:32.259Z,10.75
2024-02-07T00:21:33.976Z,11.68
2024-02-07T00:22:35.695Z,11.57
2024-02-07T00:23:37.338Z,11.20
2024-02-07T00:24:40.549Z,12.32
2024-02-07T00:25:42.951Z,12.90
2024-02-07T00:26:44.672Z,12.70
2024-02-07T00:27:47.402Z,13.05
2024-02-07T00:28:50.735Z,14.43
2024-02-07T00:29:52.391Z,14.02
2024-02-07T00:30:53.996Z,14.82
2024-02-07T00:31:55.642Z,15.10
2024-02-07T00:32:57.239Z,14.68
2024-02-07T00:33:58.947Z,14.55
2024-02-07T00:35:00.587Z,13.73
2024-02-07T00:36:02.450Z,13.30
2024-02-07T00:37:04.359Z,13.32
2024-02-07T00:38:05.948Z,12.88
2024-02-07T00:39:07.659Z,12.82
2024-02-07T00:40:12.529Z,12.90
2024-02-07T00:41:24.313Z,12.63
2024-02-07T00:42:26.227Z,12.13
2024-02-07T00:43:27.796Z,12.02
2024-02-07T00:44:29.409Z,12.82
2024-02-07T00:45:31.420Z,11.82
2024-02-07T00:46:33.521Z,12.52
2024-02-07T00:47:35.164Z,12.18
2024-02-07T00:48:36.752Z,12.13
2024-02-07T00:49:38.691Z,11.98
2024-02-07T00:50:40.305Z,13.18
2024-02-07T00:51:41.917Z,12.02
2024-02-07T00:52:43.618Z,15.25
2024-02-07T00:53:45.283Z,13.68
2024-02-07T00:54:46.871Z,11.88
2024-02-07T00:55:48.598Z,9.98
2024-02-07T00:56:50.704Z,8.32
2024-02-07T00:57:52.536Z,7.72
2024-02-07T00:58:54.201Z,7.72
2024-02-07T00:59:55.769Z,8.45
2024-02-07T01:00:57.962Z,8.65
2024-02-07T01:01:59.741Z,9.82
2024-02-07T01:03:01.514Z,8.80
2024-02-07T01:04:04.010Z,8.20
2024-02-07T01:05:06.235Z,8.15
2024-02-07T01:06:08.204Z,8.77
2024-02-07T01:07:10.068Z,7.25
2024-02-07T01:08:12.583Z,7.97
2024-02-07T01:09:14.308Z,7.78
2024-02-07T01:10:16.079Z,6.53
2024-02-07T01:11:17.804Z,6.75
2024-02-07T01:12:20.325Z,6.85
2024-02-07T01:13:21.970Z,6.47
2024-02-07T01:14:23.691Z,6.70
2024-02-07T01:15:25.566Z,6.90
2024-02-07T01:16:27.132Z,7.97
2024-02-07T01:17:28.849Z,9.02
2024-02-07T01:18:30.523Z,8.75
2024-02-07T01:19:32.132Z,9.95
2024-02-07T01:20:34.075Z,9.50
2024-02-07T01:21:36.257Z,9.07
2024-02-07T01:22:38.623Z,10.45
2024-02-07T01:23:44.757Z,10.40
2024-02-07T01:24:46.502Z,11.25
2024-02-07T01:25:48.392Z,12.02
2024-02-07T01:26:50.011Z,21.40
2024-02-07T01:27:51.586Z,19.10
2024-02-07T01:28:53.349Z,17.60
2024-02-07T01:29:56.494Z,13.70
2024-02-07T01:30:59.600Z,13.13
2024-02-07T01:32:01.207Z,12.48
2024-02-07T01:33:03.494Z,13.40
2024-02-07T01:34:05.242Z,12.93
2024-02-07T01:35:07.839Z,12.30
2024-02-07T01:36:09.763Z,12.43
2024-02-07T01:37:11.451Z,12.50
2024-02-07T01:38:19.070Z,12.85
2024-02-07T01:39:20.792Z,12.25
2024-02-07T01:40:25.111Z,14.85
2024-02-07T01:41:29.790Z,20.67
2024-02-07T01:42:33.399Z,15.60
2024-02-07T01:43:35.546Z,16.80
2024-02-07T01:44:39.129Z,14.20
2024-02-07T01:45:41.497Z,12.90
2024-02-07T01:46:43.304Z,13.07
2024-02-07T01:47:45.082Z,13.88
2024-02-07T01:48:47.970Z,12.13
2024-02-07T01:49:52.229Z,15.77
2024-02-07T01:50:55.742Z,14.45
2024-02-07T01:51:57.355Z,13.55
2024-02-07T01:53:01.476Z,12.77
2024-02-07T01:54:03.538Z,12.65
2024-02-07T01:55:05.232Z,12.55
2024-02-07T01:56:11.283Z,11.95
2024-02-07T01:57:14.354Z,12.57
2024-02-07T01:58:17.383Z,12.00
2024-02-07T01:59:20.209Z,11.52
2024-02-07T02:00:22.727Z,11.93
2024-02-07T02:01:24.541Z,12.95
2024-02-07T02:02:27.024Z,11.52
2024-02-07T02:03:28.834Z,11.65
2024-02-07T02:04:31.229Z,12.93
2024-02-07T02:05:32.898Z,11.98
2024-02-07T02:06:34.495Z,10.90
2024-02-07T02:07:36.218Z,10.23
2024-02-07T02:08:37.951Z,11.30
2024-02-07T02:09:40.472Z,12.05
2024-02-07T02:10:42.357Z,12.45
2024-02-07T02:11:47.193Z,12.15
2024-02-07T02:12:49.052Z,11.85
2024-02-07T02:13:52.529Z,11.93
2024-02-07T02:14:54.382Z,12.13
2024-02-07T02:15:56.615Z,10.52
2024-02-07T02:17:00.785Z,11.07
2024-02-07T02:18:03.860Z,12.13
2024-02-07T02:19:05.546Z,11.68
2024-02-07T02:20:09.050Z,11.88
2024-02-07T02:21:11.648Z,11.38
2024-02-07T02:22:37.688Z,11.18
2024-02-07T02:24:00.679Z,11.10
2024-02-07T02:25:28.957Z,9.57
2024-02-07T02:27:09.242Z,9.25
2024-02-07T02:28:30.814Z,9.00
2024-02-07T02:29:38.358Z,8.05
2024-02-07T02:30:51.877Z,8.73
2024-02-07T02:31:57.609Z,9.45
2024-02-07T02:33:10.370Z,10.45
2024-02-07T02:34:13.243Z,10.68
2024-02-07T02:35:18.217Z,10.93
2024-02-07T02:36:19.894Z,8.48
2024-02-07T02:37:22.930Z,8.73
2024-02-07T02:38:26.599Z,8.98
2024-02-07T02:39:31.095Z,9.60
2024-02-07T02:40:33.416Z,10.18
2024-02-07T02:41:35.099Z,9.70
2024-02-07T02:42:36.669Z,9.40
2024-02-07T02:43:38.709Z,9.45
2024-02-07T02:44:41.079Z,9.32
2024-02-07T02:45:42.837Z,10.50
2024-02-07T02:46:45.058Z,9.73
2024-02-07T02:47:46.842Z,10.20
2024-02-07T02:48:48.569Z,10.07
2024-02-07T02:49:50.308Z,11.70
2024-02-07T02:50:52.532Z,10.15
2024-02-07T02:51:54.137Z,9.95
2024-02-07T02:52:56.963Z,9.65
2024-02-07T02:53:58.534Z,8.85
2024-02-07T02:55:00.467Z,8.13
2024-02-07T02:56:06.657Z,7.88
2024-02-07T02:57:09.346Z,7.78
2024-02-07T02:58:12.743Z,7.80
2024-02-07T02:59:15.675Z,7.78
2024-02-07T03:00:21.793Z,7.50
2024-02-07T03:01:25.112Z,7.30
2024-02-07T03:02:27.487Z,7.07
2024-02-07T03:03:32.071Z,7.30
2024-02-07T03:04:36.308Z,7.10
2024-02-07T03:05:44.274Z,7.03
2024-02-07T03:07:14.450Z,7.13
2024-02-07T03:08:22.541Z,6.63
2024-02-07T03:09:27.871Z,6.72
2024-02-07T03:10:29.433Z,6.93
2024-02-07T03:11:31.021Z,8.77
2024-02-07T03:12:33.386Z,6.90
2024-02-07T03:13:35.563Z,7.97
2024-02-07T03:14:37.223Z,7.57
2024-02-07T03:15:38.959Z,7.63
2024-02-07T03:16:40.546Z,7.88
2024-02-07T03:17:43.735Z,7.88
2024-02-07T03:18:45.566Z,7.63
2024-02-07T03:19:47.603Z,8.23
2024-02-07T03:20:50.988Z,6.88
2024-02-07T03:21:52.599Z,7.38
2024-02-07T03:22:55.591Z,7.32
2024-02-07T03:23:57.470Z,6.75
2024-02-07T03:24:59.026Z,7.55
2024-02-07T03:26:02.294Z,6.38
2024-02-07T03:27:04.452Z,6.65
2024-02-07T03:28:06.282Z,6.38
2024-02-07T03:29:07.890Z,7.75
2024-02-07T03:30:09.769Z,6.80
2024-02-07T03:31:12.008Z,6.13
2024-02-07T03:32:13.719Z,6.00
2024-02-07T03:33:15.523Z,6.93
2024-02-07T03:34:17.945Z,7.05
2024-02-07T03:35:20.247Z,6.65
2024-02-07T03:36:23.155Z,6.88
2024-02-07T03:37:24.781Z,6.70
2024-02-07T03:38:26.446Z,6.93
2024-02-07T03:39:28.021Z,6.13
2024-02-07T03:40:29.654Z,6.80
2024-02-07T03:41:31.420Z,8.32
2024-02-07T03:42:33.866Z,7.35
2024-02-07T03:43:35.532Z,7.40
2024-02-07T03:44:40.040Z,8.38
2024-02-07T03:45:43.860Z,7.60
2024-02-07T03:46:45.770Z,8.98
2024-02-07T03:47:48.339Z,8.02
2024-02-07T03:48:49.989Z,7.85
2024-02-07T03:49:53.417Z,7.88
2024-02-07T03:50:55.065Z,8.07
2024-02-07T03:51:56.661Z,8.15
2024-02-07T03:52:58.367Z,7.30
2024-02-07T03:54:00.454Z,8.35
2024-02-07T03:55:02.337Z,8.40
2024-02-07T03:56:04.179Z,7.72
2024-02-07T03:57:06.024Z,7.18
2024-02-07T03:58:08.103Z,8.63
2024-02-07T03:59:09.751Z,7.32
2024-02-07T04:00:14.635Z,7.53
2024-02-07T04:01:19.617Z,8.15
2024-02-07T04:02:23.864Z,7.53
2024-02-07T04:03:25.471Z,7.60
2024-02-07T04:04:27.122Z,7.55
2024-02-07T04:05:29.394Z,8.63
2024-02-07T04:06:31.621Z,9.30
2024-02-07T04:07:34.493Z,9.48
2024-02-07T04:08:40.695Z,10.07
2024-02-07T04:09:43.043Z,8.52
2024-02-07T04:10:44.767Z,9.23
2024-02-07T04:11:46.566Z,8.48
2024-02-07T04:12:48.128Z,8.30
2024-02-07T04:13:49.725Z,8.40
2024-02-07T04:14:51.289Z,8.80
2024-02-07T04:16:11.526Z,7.63
2024-02-07T04:17:31.654Z,7.80
2024-02-07T04:18:51.755Z,7.70
2024-02-07T04:20:12.031Z,8.23
2024-02-07T04:21:43.986Z,7.80
2024-02-07T04:23:10.601Z,8.60
2024-02-07T04:24:30.430Z,8.02
2024-02-07T04:25:50.509Z,8.48
2024-02-07T04:27:15.792Z,8.43
2024-02-07T04:28:37.168Z,8.70
2024-02-07T04:29:57.249Z,9.85
2024-02-07T04:31:17.218Z,11.88
2024-02-07T04:32:37.272Z,11.52
2024-02-07T04:33:57.225Z,13.10
2024-02-07T04:35:17.492Z,14.10
2024-02-07T04:36:37.530Z,14.32
2024-02-07T04:37:57.536Z,11.02
2024-02-07T04:39:17.830Z,12.55
2024-02-07T04:40:38.873Z,12.05
2024-02-07T04:42:00.046Z,12.85
2024-02-07T04:43:20.461Z,12.10
2024-02-07T04:44:40.574Z,17.02
2024-02-07T04:46:00.950Z,15.65
2024-02-07T04:47:20.910Z,14.40
2024-02-07T04:48:41.014Z,15.32
2024-02-07T04:50:01.081Z,14.68
2024-02-07T04:51:21.231Z,14.45
2024-02-07T04:52:41.277Z,14.60
2024-02-07T04:54:01.268Z,14.48
2024-02-07T04:55:21.228Z,14.45
2024-02-07T04:56:41.272Z,14.55
2024-02-07T04:58:01.168Z,14.35
2024-02-07T04:59:24.188Z,13.18
2024-02-07T05:00:44.644Z,14.63
2024-02-07T05:02:07.646Z,14.02
2024-02-07T05:03:33.326Z,13.43
2024-02-07T05:04:53.275Z,13.10
2024-02-07T05:06:13.626Z,14.25
2024-02-07T05:07:34.088Z,13.48
2024-02-07T05:08:53.941Z,12.73
2024-02-07T05:10:14.499Z,12.82
2024-02-07T05:11:34.717Z,10.57
2024-02-07T05:12:54.742Z,10.88
2024-02-07T05:14:14.449Z,9.80
2024-02-07T05:15:15.937Z,10.02
2024-02-07T05:16:17.728Z,11.55
2024-02-07T05:17:22.102Z,11.32
2024-02-07T05:18:23.931Z,11.23
2024-02-07T05:19:25.700Z,11.60
2024-02-07T05:20:27.427Z,11.80
2024-02-07T05:21:29.013Z,12.02
2024-02-07T05:22:30.838Z,12.45
2024-02-07T05:23:32.451Z,11.80
2024-02-07T05:24:34.395Z,12.45
2024-02-07T05:25:36.176Z,11.35
2024-02-07T05:26:39.359Z,11.60
2024-02-07T05:27:40.909Z,12.70
2024-02-07T05:28:43.027Z,12.60
2024-02-07T05:29:45.371Z,11.80
2024-02-07T05:30:47.115Z,13.50
2024-02-07T05:31:51.580Z,13.82
2024-02-07T05:32:55.310Z,13.40
2024-02-07T05:33:57.009Z,12.95
2024-02-07T05:34:58.808Z,12.48
2024-02-07T05:36:00.702Z,12.00
2024-02-07T05:37:03.465Z,12.02
2024-02-07T05:38:05.140Z,12.32
2024-02-07T05:39:06.878Z,11.52
2024-02-07T05:40:08.997Z,11.25
2024-02-07T05:41:10.575Z,12.60
2024-02-07T05:42:12.167Z,12.20
2024-02-07T05:43:14.012Z,13.82
2024-02-07T05:44:16.331Z,13.18
2024-02-07T05:45:18.041Z,11.57
2024-02-07T05:46:20.834Z,11.38
2024-02-07T05:47:22.415Z,11.85
2024-02-07T05:48:24.014Z,13.52
2024-02-07T05:49:26.892Z,13.23
2024-02-07T05:50:29.197Z,13.98
2024-02-07T05:51:30.844Z,13.32
2024-02-07T05:52:32.490Z,14.93
2024-02-07T05:53:34.069Z,14.43
2024-02-07T05:54:35.702Z,14.48
2024-02-07T05:55:37.430Z,14.10
2024-02-07T05:56:39.173Z,15.35
2024-02-07T05:57:41.257Z,14.43
2024-02-07T05:58:43.064Z,14.85
2024-02-07T05:59:44.813Z,14.48
2024-02-07T06:00:46.620Z,13.77
2024-02-07T06:01:51.111Z,14.48
2024-02-07T06:02:52.723Z,14.13
2024-02-07T06:03:54.914Z,14.73
2024-02-07T06:04:58.616Z,13.57
2024-02-07T06:06:00.363Z,14.13
2024-02-07T06:07:02.450Z,16.55
2024-02-07T06:08:05.398Z,16.67
2024-02-07T06:09:08.077Z,15.85
2024-02-07T06:10:10.656Z,18.83
2024-02-07T06:11:12.427Z,17.05
2024-02-07T06:12:14.071Z,15.93
2024-02-07T06:13:15.666Z,14.85
2024-02-07T06:14:17.295Z,14.98
2024-02-07T06:15:18.978Z,15.30
2024-02-07T06:16:21.086Z,15.10
2024-02-07T06:17:22.855Z,13.90
2024-02-07T06:18:24.401Z,14.43
2024-02-07T06:19:26.044Z,14.80
2024-02-07T06:20:28.232Z,13.90
2024-02-07T06:21:29.917Z,13.88
2024-02-07T06:22:31.499Z,14.90
2024-02-07T06:23:33.076Z,14.57
2024-02-07T06:24:34.746Z,14.43
2024-02-07T06:25:36.420Z,15.88
2024-02-07T06:26:37.985Z,14.93
2024-02-07T06:27:39.563Z,13.80
2024-02-07T06:28:41.246Z,13.00
2024-02-07T06:29:43.682Z,13.43
2024-02-07T06:30:45.695Z,13.13
2024-02-07T06:31:47.277Z,13.25
2024-02-07T06:32:48.874Z,13.30
2024-02-07T06:33:51.110Z,13.98
2024-02-07T06:34:52.887Z,16.40
2024-02-07T06:35:54.502Z,17.05
2024-02-07T06:36:56.073Z,16.83
2024-02-07T06:37:57.730Z,16.17
2024-02-07T06:38:59.561Z,15.45
2024-02-07T06:40:01.332Z,15.40
2024-02-07T06:41:03.093Z,16.20
2024-02-07T06:42:05.165Z,15.57
2024-02-07T06:43:06.856Z,14.65
2024-02-07T06:44:08.487Z,15.43
2024-02-07T06:45:10.368Z,13.45
2024-02-07T06:46:12.025Z,14.70
2024-02-07T06:47:13.862Z,13.70
2024-02-07T06:48:16.040Z,10.70
2024-02-07T06:49:17.995Z,10.23
2024-02-07T06:50:20.574Z,9.77
2024-02-07T06:51:22.517Z,9.90
2024-02-07T06:52:24.096Z,9.80
2024-02-07T06:53:25.750Z,10.30
2024-02-07T06:54:28.238Z,11.10
2024-02-07T06:55:29.912Z,9.52
2024-02-07T06:56:33.348Z,10.48
2024-02-07T06:57:36.003Z,9.45
2024-02-07T06:58:37.616Z,9.15
2024-02-07T06:59:39.186Z,10.57
2024-02-07T07:00:41.127Z,9.70
2024-02-07T07:01:43.380Z,9.70
2024-02-07T07:02:49.993Z,9.40
2024-02-07T07:03:58.524Z,9.43
2024-02-07T07:05:00.200Z,8.98
2024-02-07T07:06:02.195Z,10.25
2024-02-07T07:07:04.013Z,8.70
2024-02-07T07:08:07.848Z,8.77
2024-02-07T07:09:09.835Z,8.88
2024-02-07T07:10:11.556Z,8.75
2024-02-07T07:11:13.214Z,8.98
2024-02-07T07:12:14.851Z,9.70
2024-02-07T07:13:16.545Z,9.50
2024-02-07T07:14:18.282Z,10.77
2024-02-07T07:15:29.980Z,9.88
2024-02-07T07:16:34.808Z,9.38
2024-02-07T07:17:36.441Z,9.57
2024-02-07T07:18:38.040Z,10.18
2024-02-07T07:19:40.784Z,10.00
2024-02-07T07:20:42.445Z,11.25
2024-02-07T07:21:43.975Z,10.05
2024-02-07T07:22:53.118Z,9.95
2024-02-07T07:24:00.693Z,10.10
2024-02-07T07:25:02.266Z,10.82
2024-02-07T07:26:04.337Z,10.10
2024-02-07T07:27:06.556Z,10.45
2024-02-07T07:28:08.375Z,9.73
2024-02-07T07:29:12.093Z,9.70
2024-02-07T07:30:14.060Z,10.07
2024-02-07T07:31:15.712Z,9.98
2024-02-07T07:32:17.357Z,8.70
2024-02-07T07:33:19.022Z,9.10
2024-02-07T07:34:20.805Z,10.77
2024-02-07T07:35:22.546Z,8.82
2024-02-07T07:36:28.262Z,9.60
2024-02-07T07:37:30.048Z,9.65
2024-02-07T07:38:31.699Z,9.40
2024-02-07T07:39:33.309Z,9.90
2024-02-07T07:40:35.995Z,9.07
2024-02-07T07:41:40.609Z,9.65
2024-02-07T07:42:43.151Z,9.75
2024-02-07T07:43:44.917Z,9.32
2024-02-07T07:44:46.544Z,10.27
2024-02-07T07:45:48.085Z,12.52
2024-02-07T07:46:49.774Z,12.38
2024-02-07T07:47:51.955Z,12.75
2024-02-07T07:48:53.815Z,13.38
2024-02-07T07:49:55.538Z,12.85
2024-02-07T07:50:57.131Z,13.48
2024-02-07T07:51:58.714Z,13.75
2024-02-07T07:53:00.392Z,13.75
2024-02-07T07:54:02.030Z,14.70
2024-02-07T07:55:03.941Z,14.75
2024-02-07T07:56:07.376Z,13.48
2024-02-07T07:57:09.054Z,12.98
2024-02-07T07:58:10.599Z,13.15
2024-02-07T07:59:13.789Z,14.40
2024-02-07T08:00:15.920Z,14.48
2024-02-07T08:01:23.787Z,14.07
2024-02-07T08:02:27.892Z,12.97
2024-02-07T08:03:29.517Z,12.68
2024-02-07T08:04:31.172Z,12.93
2024-02-07T08:05:33.451Z,13.13
2024-02-07T08:06:36.065Z,13.63
2024-02-07T08:07:37.789Z,13.15
2024-02-07T08:08:39.665Z,13.63
2024-02-07T08:09:43.028Z,14.40
2024-02-07T08:10:47.884Z,13.55
2024-02-07T08:11:50.114Z,12.35
2024-02-07T08:12:51.748Z,12.45
2024-02-07T08:13:53.368Z,11.48
2024-02-07T08:14:55.190Z,12.00
2024-02-07T08:15:56.773Z,11.93
2024-02-07T08:16:58.463Z,11.70
2024-02-07T08:18:00.207Z,11.98
2024-02-07T08:19:01.850Z,11.27
2024-02-07T08:20:04.315Z,10.25
2024-02-07T08:21:06.786Z,10.93
2024-02-07T08:22:08.460Z,10.63
2024-02-07T08:23:10.091Z,10.00
2024-02-07T08:24:11.666Z,9.57
2024-02-07T08:25:14.396Z,10.38
2024-02-07T08:26:16.033Z,8.73
2024-02-07T08:27:17.593Z,8.70
2024-02-07T08:28:19.334Z,7.68
2024-02-07T08:29:20.912Z,7.03
2024-02-07T08:30:22.602Z,7.70
2024-02-07T08:31:24.230Z,7.25
2024-02-07T08:32:25.939Z,7.45
2024-02-07T08:33:27.659Z,8.38
2024-02-07T08:34:29.654Z,7.97
2024-02-07T08:35:31.657Z,7.55
2024-02-07T08:36:33.706Z,7.28
2024-02-07T08:37:35.462Z,7.45
2024-02-07T08:38:37.149Z,6.20
2024-02-07T08:39:38.736Z,5.72
2024-02-07T08:40:40.363Z,6.30
2024-02-07T08:41:42.336Z,7.18
2024-02-07T08:42:45.560Z,7.60
2024-02-07T08:43:48.003Z,6.15
2024-02-07T08:44:49.599Z,6.32
2024-02-07T08:45:51.270Z,6.72
2024-02-07T08:46:52.924Z,6.30
2024-02-07T08:47:54.767Z,6.53
2024-02-07T08:48:56.454Z,6.97
2024-02-07T08:49:58.636Z,6.32
2024-02-07T08:51:00.327Z,6.55
2024-02-07T08:52:01.904Z,6.20
2024-02-07T08:53:03.870Z,6.40
2024-02-07T08:54:05.677Z,6.30
2024-02-07T08:55:10.985Z,6.57
2024-02-07T08:56:12.646Z,6.57
2024-02-07T08:57:14.708Z,10.32
2024-02-07T08:58:16.316Z,18.67
2024-02-07T08:59:17.985Z,19.25
2024-02-07T09:00:19.762Z,19.65
2024-02-07T09:01:21.910Z,18.25
2024-02-07T09:02:23.709Z,18.27
2024-02-07T09:03:25.399Z,18.38
2024-02-07T09:04:27.057Z,18.85
2024-02-07T09:05:28.845Z,18.00
2024-02-07T09:06:30.679Z,17.60
2024-02-07T09:07:32.910Z,17.25
2024-02-07T09:08:34.735Z,15.95
2024-02-07T09:09:36.516Z,16.05
2024-02-07T09:10:38.116Z,16.50
2024-02-07T09:11:39.728Z,16.80
2024-02-07T09:12:41.684Z,15.77
2024-02-07T09:13:43.318Z,18.17
2024-02-07T09:14:44.940Z,18.30
2024-02-07T09:15:46.552Z,19.08
2024-02-07T09:16:48.224Z,17.83
2024-02-07T09:17:49.997Z,18.13
2024-02-07T09:18:53.501Z,18.83
2024-02-07T09:19:55.228Z,18.05
2024-02-07T09:20:56.861Z,17.85
2024-02-07T09:21:58.576Z,15.45
2024-02-07T09:23:00.334Z,16.27
2024-02-07T09:24:01.979Z,17.70
2024-02-07T09:25:03.838Z,16.48
2024-02-07T09:26:05.987Z,17.20
2024-02-07T09:27:08.011Z,16.40
2024-02-07T09:28:09.556Z,17.73
2024-02-07T09:29:11.203Z,15.70
2024-02-07T09:30:14.328Z,16.67
2024-02-07T09:31:16.326Z,17.00
2024-02-07T09:32:19.645Z,16.25
2024-02-07T09:33:21.456Z,17.48
2024-02-07T09:34:23.482Z,16.73
2024-02-07T09:35:25.688Z,17.77
2024-02-07T09:36:28.412Z,17.05
2024-02-07T09:37:30.080Z,15.80
2024-02-07T09:38:32.337Z,15.52
2024-02-07T09:39:33.967Z,15.05
2024-02-07T09:40:35.607Z,15.48
2024-02-07T09:41:42.599Z,14.43
2024-02-07T09:42:45.341Z,14.95
2024-02-07T09:43:49.219Z,14.20
2024-02-07T09:44:52.339Z,13.93
2024-02-07T09:46:00.790Z,14.20
2024-02-07T09:47:03.300Z,13.00
2024-02-07T09:48:21.752Z,11.50
2024-02-07T09:49:25.971Z,11.10
2024-02-07T09:50:27.897Z,11.70
2024-02-07T09:51:30.425Z,10.63
2024-02-07T09:52:33.124Z,11.77
2024-02-07T09:53:36.976Z,12.05
2024-02-07T09:54:39.135Z,11.65
2024-02-07T09:55:42.080Z,12.93
2024-02-07T09:56:44.916Z,11.15
2024-02-07T09:57:48.327Z,13.48
2024-02-07T09:58:50.231Z,13.63
2024-02-07T09:59:53.679Z,12.75
2024-02-07T10:00:55.897Z,11.38
2024-02-07T10:01:57.694Z,10.13
2024-02-07T10:02:59.547Z,8.38
2024-02-07T10:04:02.674Z,7.63
2024-02-07T10:05:07.410Z,8.40
2024-02-07T10:06:10.832Z,7.68
2024-02-07T10:07:14.171Z,8.25
2024-02-07T10:08:16.246Z,9.35
2024-02-07T10:09:18.478Z,8.02
2024-02-07T10:10:21.195Z,8.13
2024-02-07T10:11:23.838Z,8.05
2024-02-07T10:12:25.570Z,7.28
2024-02-07T10:13:28.257Z,7.57
2024-02-07T10:14:32.184Z,7.75
2024-02-07T10:15:34.066Z,7.68
2024-02-07T10:16:35.672Z,8.70
2024-02-07T10:17:37.289Z,7.53
2024-02-07T10:18:38.944Z,8.25
2024-02-07T10:19:41.094Z,7.88
2024-02-07T10:20:55.998Z,8.30
2024-02-07T10:21:58.941Z,8.35
2024-02-07T10:23:00.537Z,7.28
2024-02-07T10:24:06.335Z,7.10
2024-02-07T10:25:15.663Z,7.03
2024-02-07T10:26:24.659Z,6.30
2024-02-07T10:27:26.288Z,6.85
2024-02-07T10:28:28.348Z,6.63
2024-02-07T10:29:30.014Z,6.25
2024-02-07T10:30:32.035Z,6.60
2024-02-07T10:31:33.729Z,6.00
2024-02-07T10:32:39.997Z,5.60
2024-02-07T10:33:43.260Z,5.82
2024-02-07T10:34:57.177Z,6.53
2024-02-07T10:36:02.927Z,5.65
2024-02-07T10:37:04.911Z,5.30
2024-02-07T10:38:06.498Z,6.57
2024-02-07T10:39:10.301Z,6.47
2024-02-07T10:40:12.953Z,8.05
2024-02-07T10:41:14.918Z,9.48
2024-02-07T10:42:16.905Z,9.27
2024-02-07T10:43:25.041Z,9.23
2024-02-07T10:44:26.673Z,10.43
2024-02-07T10:45:28.235Z,10.45
2024-02-07T10:46:29.891Z,9.82
2024-02-07T10:47:33.589Z,10.77
2024-02-07T10:48:35.912Z,10.90
2024-02-07T10:49:37.869Z,11.23
2024-02-07T10:50:39.928Z,10.48
2024-02-07T10:51:42.223Z,11.30
2024-02-07T10:52:44.398Z,10.55
2024-02-07T10:53:46.044Z,10.55
2024-02-07T10:54:47.726Z,10.82
2024-02-07T10:55:50.786Z,10.43
2024-02-07T10:56:57.662Z,10.85
2024-02-07T10:58:00.533Z,11.00
2024-02-07T10:59:02.897Z,9.80
2024-02-07T11:00:06.557Z,9.95
2024-02-07T11:01:08.961Z,9.50
2024-02-07T11:02:16.771Z,10.77
2024-02-07T11:03:19.299Z,10.30
2024-02-07T11:04:21.569Z,11.63
2024-02-07T11:05:25.664Z,10.10
2024-02-07T11:06:28.752Z,10.52
2024-02-07T11:07:31.464Z,12.18
2024-02-07T11:08:33.906Z,10.65
2024-02-07T11:09:37.568Z,10.40
2024-02-07T11:10:40.842Z,9.38
2024-02-07T11:11:43.198Z,9.70
2024-02-07T11:12:45.085Z,9.10
2024-02-07T11:13:47.156Z,10.82
2024-02-07T11:14:51.481Z,10.10
2024-02-07T11:15:53.197Z,9.80
2024-02-07T11:16:54.899Z,9.82
2024-02-07T11:17:56.708Z,9.88
2024-02-07T11:18:59.610Z,9.65
2024-02-07T11:20:03.013Z,9.73
2024-02-07T11:21:06.910Z,9.20
2024-02-07T11:22:15.228Z,9.50
2024-02-07T11:23:23.368Z,9.55
2024-02-07T11:24:25.350Z,8.75
2024-02-07T11:25:28.599Z,9.63
2024-02-07T11:26:31.132Z,8.77
2024-02-07T11:27:32.794Z,8.20
2024-02-07T11:28:34.688Z,8.77
2024-02-07T11:29:36.616Z,10.45
2024-02-07T11:30:38.315Z,10.48
2024-02-07T11:31:42.125Z,9.07
2024-02-07T11:32:43.927Z,8.98
2024-02-07T11:33:53.158Z,9.45
2024-02-07T11:34:55.188Z,8.48
2024-02-07T11:36:17.335Z,8.95
2024-02-07T11:37:19.692Z,8.73
2024-02-07T11:38:21.425Z,9.05
2024-02-07T11:39:23.765Z,8.55
2024-02-07T11:40:28.232Z,8.25
2024-02-07T11:41:30.042Z,8.80
2024-02-07T11:42:37.027Z,8.27
2024-02-07T11:43:38.753Z,8.18
2024-02-07T11:44:54.560Z,9.00
2024-02-07T11:46:20.304Z,8.55
2024-02-07T11:47:31.282Z,7.57
2024-02-07T11:48:41.847Z,8.80
2024-02-07T11:49:43.471Z,8.05
2024-02-07T11:50:47.032Z,7.85
2024-02-07T11:52:00.824Z,9.10
2024-02-07T11:53:03.513Z,7.85
2024-02-07T11:54:08.874Z,8.30
2024-02-07T11:55:12.421Z,7.38
2024-02-07T11:56:19.567Z,11.07
2024-02-07T11:57:22.812Z,7.63
2024-02-07T11:58:25.837Z,8.80
2024-02-07T11:59:28.466Z,7.25
2024-02-07T12:00:31.590Z,7.35
2024-02-07T12:01:33.470Z,6.47
2024-02-07T12:02:38.068Z,6.88
2024-02-07T12:03:42.873Z,6.03
2024-02-07T12:04:46.015Z,6.70
2024-02-07T12:05:48.117Z,6.13
2024-02-07T12:06:51.358Z,6.25
2024-02-07T12:07:55.788Z,6.15
2024-02-07T12:08:57.853Z,6.38
2024-02-07T12:09:59.529Z,7.22
2024-02-07T12:11:01.249Z,7.25
2024-02-07T12:12:03.068Z,7.60
2024-02-07T12:13:04.702Z,7.88
2024-02-07T12:14:06.390Z,7.03
2024-02-07T12:15:08.616Z,6.72
2024-02-07T12:16:11.627Z,6.50
2024-02-07T12:17:13.815Z,7.25
2024-02-07T12:18:15.457Z,7.50
2024-02-07T12:19:17.380Z,7.63
2024-02-07T12:20:20.018Z,6.90
2024-02-07T12:21:25.965Z,7.07
2024-02-07T12:22:36.722Z,6.78
2024-02-07T12:23:39.100Z,6.57
2024-02-07T12:24:42.341Z,7.32
2024-02-07T12:25:44.016Z,6.65
2024-02-07T12:26:45.604Z,6.57
2024-02-07T12:27:47.377Z,6.00
2024-02-07T12:28:55.912Z,6.30
2024-02-07T12:29:58.783Z,6.82
2024-02-07T12:31:01.283Z,5.95
2024-02-07T12:32:03.321Z,6.28
2024-02-07T12:33:05.598Z,6.05
2024-02-07T12:34:10.898Z,6.50
2024-02-07T12:35:13.274Z,7.70
2024-02-07T12:36:15.023Z,7.57
2024-02-07T12:37:18.407Z,7.78
2024-02-07T12:38:21.002Z,7.43
2024-02-07T12:39:22.720Z,9.23
2024-02-07T12:40:24.287Z,8.57
2024-02-07T12:41:26.068Z,8.25
2024-02-07T12:42:27.661Z,8.05
2024-02-07T12:43:30.183Z,8.70
2024-02-07T12:44:33.289Z,8.07
2024-02-07T12:45:34.863Z,7.47
2024-02-07T12:46:36.587Z,8.27
2024-02-07T12:47:38.328Z,7.38
2024-02-07T12:48:40.233Z,7.57
2024-02-07T12:49:43.156Z,8.00
2024-02-07T12:50:45.527Z,7.82
2024-02-07T12:51:47.531Z,7.40
2024-02-07T12:52:49.261Z,8.13
2024-02-07T12:53:51.055Z,7.57
2024-02-07T12:54:52.781Z,6.00
2024-02-07T12:55:54.661Z,6.95
2024-02-07T12:56:56.814Z,9.30
2024-02-07T12:58:05.384Z,6.47
2024-02-07T12:59:07.044Z,5.55
2024-02-07T13:00:11.521Z,6.68
2024-02-07T13:01:14.379Z,5.50
2024-02-07T13:02:16.250Z,5.95
2024-02-07T13:03:17.896Z,5.35
2024-02-07T13:04:19.555Z,6.35
2024-02-07T13:05:21.610Z,4.97
2024-02-07T13:06:24.100Z,8.68
2024-02-07T13:07:27.265Z,7.35
2024-02-07T13:08:29.155Z,5.72
2024-02-07T13:09:30.719Z,4.80
2024-02-07T13:10:32.419Z,5.05
2024-02-07T13:11:34.504Z,5.07
2024-02-07T13:12:37.037Z,5.88
2024-02-07T13:13:38.688Z,5.30
2024-02-07T13:14:40.348Z,5.85
2024-02-07T13:15:42.341Z,5.68
2024-02-07T13:16:45.681Z,5.35
2024-02-07T13:17:50.600Z,4.72
2024-02-07T13:18:54.544Z,5.25
2024-02-07T13:19:56.443Z,5.90
2024-02-07T13:21:03.080Z,8.55
2024-02-07T13:22:04.803Z,8.55
2024-02-07T13:23:06.553Z,8.07
2024-02-07T13:24:17.808Z,7.20
2024-02-07T13:25:19.696Z,5.63
2024-02-07T13:26:23.487Z,4.75
2024-02-07T13:27:25.108Z,4.75
2024-02-07T13:28:26.990Z,5.13
2024-02-07T13:29:28.662Z,5.18
2024-02-07T13:30:30.324Z,5.35
2024-02-07T13:31:31.997Z,5.55
2024-02-07T13:32:34.177Z,8.57
2024-02-07T13:33:35.871Z,6.18
2024-02-07T13:34:38.401Z,5.35
2024-02-07T13:35:40.189Z,5.75
2024-02-07T13:36:42.310Z,5.28
2024-02-07T13:37:44.211Z,4.70
2024-02-07T13:38:45.931Z,8.07
2024-02-07T13:39:47.626Z,5.07
2024-02-07T13:40:49.493Z,4.53
2024-02-07T13:41:51.101Z,3.55
2024-02-07T13:42:53.662Z,4.60
2024-02-07T13:43:55.374Z,4.35
2024-02-07T13:44:57.866Z,4.25
2024-02-07T13:45:59.573Z,4.45
2024-02-07T13:47:02.808Z,4.93
2024-02-07T13:48:05.250Z,4.00
2024-02-07T13:49:09.960Z,5.53
2024-02-07T13:50:11.672Z,6.47
2024-02-07T13:51:13.543Z,5.88
2024-02-07T13:52:15.238Z,7.63
2024-02-07T13:53:17.122Z,23.30
2024-02-07T13:54:18.755Z,9.90
2024-02-07T13:55:20.643Z,14.73
2024-02-07T13:56:22.377Z,6.65
2024-02-07T13:57:23.957Z,4.28